Time,TemperatureF,DewpointF,PressureIn,WindDirection,WindDirectionDegrees,WindSpeedMPH,WindSpeedGustMPH,Humidity,HourlyPrecipIn,Conditions,Clouds,dailyrainin,SoftwareType,DateUTC
2013-07-16 00:10:00,64.9,63.1,29.88,NW,315,1.0,2.0,94,0.00,,,0.00,meteohub,2013-07-16 07:10:00,
2013-07-16 00:15:00,64.8,63.0,29.88,NW,315,0.0,2.0,94,0.00,,,0.00,meteohub,2013-07-16 07:15:00,
2013-07-16 00:20:00,64.4,62.4,29.88,NW,315,0.0,2.0,93,0.00,,,0.00,meteohub,2013-07-16 07:20:00,
2013-07-16 00:45:00,63.3,62.2,29.88,NW,315,0.0,0.0,96,0.00,,,0.00,meteohub,2013-07-16 07:45:00,
2013-07-16 00:50:00,63.3,62.2,29.88,NW,315,0.0,0.0,96,0.00,,,0.00,meteohub,2013-07-16 07:50:00,
2013-07-16 00:55:00,63.1,62.1,29.88,NW,315,0.0,0.0,96,0.00,,,0.00,meteohub,2013-07-16 07:55:00,
2013-07-16 01:00:00,62.6,61.7,29.88,NW,315,0.0,0.0,97,0.00,,,0.00,meteohub,2013-07-16 08:00:00,
2013-07-16 01:05:00,62.4,61.9,29.88,NW,315,0.0,0.0,98,0.00,,,0.00,meteohub,2013-07-16 08:05:00,
2013-07-16 01:10:00,62.2,61.7,29.88,NW,315,0.0,0.0,98,0.00,,,0.00,meteohub,2013-07-16 08:10:00,
2013-07-16 01:15:00,61.9,61.3,29.88,NW,315,0.0,0.0,98,0.00,,,0.00,meteohub,2013-07-16 08:15:00,
2013-07-16 01:20:00,62.2,61.9,29.88,NW,315,0.0,0.0,99,0.00,,,0.00,meteohub,2013-07-16 08:20:00,
2013-07-16 01:25:00,62.1,61.7,29.88,NW,315,0.0,0.0,99,0.00,,,0.00,meteohub,2013-07-16 08:25:00,
2013-07-16 01:30:00,61.7,61.3,29.88,NW,315,0.0,0.0,99,0.00,,,0.00,meteohub,2013-07-16 08:30:00,
2013-07-16 01:35:00,61.7,61.3,29.88,NW,315,0.0,0.0,99,0.00,,,0.00,meteohub,2013-07-16 08:35:00,
2013-07-16 01:40:00,61.2,60.8,29.88,NW,315,0.0,0.0,99,0.00,,,0.00,meteohub,2013-07-16 08:40:00,
2013-07-16 01:45:00,60.8,60.4,29.88,NW,315,0.0,0.0,99,0.00,,,0.00,meteohub,2013-07-16 08:45:00,
2013-07-16 01:50:00,60.8,60.4,29.88,NW,315,0.0,1.0,99,0.00,,,0.00,meteohub,2013-07-16 08:50:00,
2013-07-16 01:55:00,60.8,60.4,29.88,NW,315,0.0,1.0,99,0.00,,,0.00,meteohub,2013-07-16 08:55:00,
2013-07-16 02:00:00,61.0,60.6,29.88,NW,315,2.0,2.0,99,0.00,,,0.00,meteohub,2013-07-16 09:00:00,
2013-07-16 02:05:00,61.0,60.6,29.88,NW,315,0.0,2.0,99,0.00,,,0.00,meteohub,2013-07-16 09:05:00,
2013-07-16 02:10:00,60.6,60.3,29.88,NW,315,1.0,2.0,99,0.00,,,0.00,meteohub,2013-07-16 09:10:00,
2013-07-16 02:15:00,60.6,60.3,29.88,NW,315,0.0,2.0,99,0.00,,,0.00,meteohub,2013-07-16 09:15:00,
2013-07-16 02:20:00,60.8,60.4,29.88,NW,315,0.0,2.0,99,0.00,,,0.00,meteohub,2013-07-16 09:20:00,
2013-07-16 02:25:00,60.8,60.4,29.88,NW,315,0.0,2.0,99,0.00,,,0.00,meteohub,2013-07-16 09:25:00,
2013-07-16 02:30:00,60.4,60.1,29.88,NW,315,0.0,1.0,99,0.00,,,0.00,meteohub,2013-07-16 09:30:00,
2013-07-16 02:36:00,60.3,59.9,29.88,NW,315,0.0,1.0,99,0.00,,,0.00,meteohub,2013-07-16 09:36:00,
2013-07-16 02:41:00,60.3,59.9,29.87,NW,315,0.0,1.0,99,0.00,,,0.00,meteohub,2013-07-16 09:41:00,
2013-07-16 02:46:00,60.1,59.7,29.88,NW,315,0.0,1.0,99,0.00,,,0.00,meteohub,2013-07-16 09:46:00,
2013-07-16 02:51:00,60.1,59.7,29.88,NW,315,1.0,2.0,99,0.00,,,0.00,meteohub,2013-07-16 09:51:00,
2013-07-16 02:56:00,60.3,59.9,29.87,NW,315,0.0,2.0,99,0.00,,,0.00,meteohub,2013-07-16 09:56:00,
2013-07-16 03:01:00,60.1,59.7,29.88,NW,315,0.0,2.0,99,0.00,,,0.00,meteohub,2013-07-16 10:01:00,
2013-07-16 03:06:00,60.1,59.7,29.88,NW,315,0.0,1.0,99,0.00,,,0.00,meteohub,2013-07-16 10:06:00,
2013-07-16 03:11:00,59.9,59.5,29.87,NW,315,0.0,0.0,99,0.00,,,0.00,meteohub,2013-07-16 10:11:00,
2013-07-16 03:16:00,59.9,59.5,29.87,NW,315,0.0,0.0,99,0.00,,,0.00,meteohub,2013-07-16 10:16:00,
2013-07-16 03:21:00,59.9,59.5,29.87,NW,315,0.0,0.0,99,0.00,,,0.00,meteohub,2013-07-16 10:21:00,
2013-07-16 03:26:00,59.9,59.5,29.88,NW,315,0.0,0.0,99,0.00,,,0.00,meteohub,2013-07-16 10:26:00,
2013-07-16 03:31:00,59.7,59.4,29.88,NW,315,0.0,0.0,99,0.00,,,0.00,meteohub,2013-07-16 10:31:00,
2013-07-16 03:36:00,59.5,59.2,29.87,NW,315,0.0,0.0,99,0.00,,,0.00,meteohub,2013-07-16 10:36:00,
2013-07-16 03:41:00,59.5,59.2,29.87,NW,315,0.0,0.0,99,0.00,,,0.00,meteohub,2013-07-16 10:41:00,
2013-07-16 03:46:00,59.5,59.2,29.88,NW,315,0.0,0.0,99,0.00,,,0.00,meteohub,2013-07-16 10:46:00,
2013-07-16 03:51:00,59.5,59.2,29.88,NW,315,0.0,0.0,99,0.00,,,0.00,meteohub,2013-07-16 10:51:00,
2013-07-16 03:56:00,59.5,59.2,29.88,NW,315,0.0,0.0,99,0.00,,,0.00,meteohub,2013-07-16 10:56:00,
2013-07-16 04:01:00,59.7,59.4,29.87,NW,315,0.0,0.0,99,0.00,,,0.00,meteohub,2013-07-16 11:01:00,
2013-07-16 04:06:00,59.9,59.5,29.87,NW,315,0.0,0.0,99,0.00,,,0.00,meteohub,2013-07-16 11:06:00,
2013-07-16 04:11:00,59.4,59.0,29.88,NW,315,0.0,0.0,99,0.00,,,0.00,meteohub,2013-07-16 11:11:00,
2013-07-16 04:16:00,58.8,58.5,29.87,NW,315,0.0,0.0,99,0.00,,,0.00,meteohub,2013-07-16 11:16:00,
2013-07-16 04:21:00,58.3,57.9,29.87,NW,315,0.0,0.0,99,0.00,,,0.00,meteohub,2013-07-16 11:21:00,
2013-07-16 04:26:00,58.3,57.9,29.87,NW,315,0.0,0.0,99,0.00,,,0.00,meteohub,2013-07-16 11:26:00,
2013-07-16 04:31:00,58.3,57.9,29.87,NW,315,0.0,0.0,99,0.00,,,0.00,meteohub,2013-07-16 11:31:00,
2013-07-16 04:36:00,58.3,57.9,29.88,NW,315,0.0,0.0,99,0.00,,,0.00,meteohub,2013-07-16 11:36:00,
2013-07-16 04:41:00,58.3,57.9,29.88,NW,315,0.0,0.0,99,0.00,,,0.00,meteohub,2013-07-16 11:41:00,
2013-07-16 04:46:00,58.1,57.7,29.88,NW,315,0.0,0.0,99,0.00,,,0.00,meteohub,2013-07-16 11:46:00,
2013-07-16 04:51:00,57.9,57.6,29.88,NW,315,0.0,0.0,99,0.00,,,0.00,meteohub,2013-07-16 11:51:00,
2013-07-16 04:56:00,58.3,57.9,29.88,NW,315,0.0,0.0,99,0.00,,,0.00,meteohub,2013-07-16 11:56:00,
2013-07-16 05:01:00,58.3,57.9,29.88,NW,315,0.0,0.0,99,0.00,,,0.00,meteohub,2013-07-16 12:01:00,
2013-07-16 05:06:00,58.5,58.1,29.88,NW,315,0.0,0.0,99,0.00,,,0.00,meteohub,2013-07-16 12:06:00,
2013-07-16 05:11:00,58.5,58.1,29.88,NW,315,0.0,0.0,99,0.00,,,0.00,meteohub,2013-07-16 12:11:00,
2013-07-16 05:16:00,58.6,58.3,29.88,NW,315,0.0,0.0,99,0.00,,,0.00,meteohub,2013-07-16 12:16:00,
2013-07-16 05:22:00,58.3,57.9,29.89,NW,315,0.0,0.0,99,0.00,,,0.00,meteohub,2013-07-16 12:22:00,
2013-07-16 05:27:00,58.3,57.9,29.89,NW,315,0.0,0.0,99,0.00,,,0.00,meteohub,2013-07-16 12:27:00,
2013-07-16 05:32:00,57.9,57.6,29.89,NW,315,0.0,0.0,99,0.00,,,0.00,meteohub,2013-07-16 12:32:00,
2013-07-16 05:37:00,58.1,57.7,29.89,NW,315,0.0,0.0,99,0.00,,,0.00,meteohub,2013-07-16 12:37:00,
2013-07-16 05:42:00,58.1,57.7,29.89,NW,315,0.0,0.0,99,0.00,,,0.00,meteohub,2013-07-16 12:42:00,
2013-07-16 05:47:00,58.3,57.9,29.90,NW,315,0.0,0.0,99,0.00,,,0.00,meteohub,2013-07-16 12:47:00,
2013-07-16 05:52:00,57.7,57.4,29.89,NW,315,0.0,0.0,99,0.00,,,0.00,meteohub,2013-07-16 12:52:00,
2013-07-16 05:57:00,57.6,57.2,29.90,NW,315,0.0,0.0,99,0.00,,,0.00,meteohub,2013-07-16 12:57:00,
2013-07-16 06:01:00,57.7,57.4,29.90,NW,315,0.0,0.0,99,0.00,,,0.00,meteohub,2013-07-16 13:01:00,
2013-07-16 06:07:00,58.3,57.9,29.90,NW,315,0.0,0.0,99,0.00,,,0.00,meteohub,2013-07-16 13:07:00,
2013-07-16 06:12:00,58.5,58.1,29.91,NW,315,0.0,0.0,99,0.00,,,0.00,meteohub,2013-07-16 13:12:00,
2013-07-16 06:17:00,58.6,58.3,29.91,NW,315,0.0,0.0,99,0.00,,,0.00,meteohub,2013-07-16 13:17:00,
2013-07-16 06:22:00,58.8,58.5,29.91,NW,315,0.0,0.0,99,0.00,,,0.00,meteohub,2013-07-16 13:22:00,
2013-07-16 06:27:00,59.2,58.8,29.91,NW,315,0.0,0.0,99,0.00,,,0.00,meteohub,2013-07-16 13:27:00,
2013-07-16 06:32:00,59.9,59.5,29.91,NW,315,0.0,0.0,99,0.00,,,0.00,meteohub,2013-07-16 13:32:00,
2013-07-16 06:37:00,61.2,60.8,29.91,NW,315,0.0,1.0,99,0.00,,,0.00,meteohub,2013-07-16 13:37:00,
2013-07-16 06:42:00,62.8,62.4,29.92,NW,315,0.0,1.0,99,0.00,,,0.00,meteohub,2013-07-16 13:42:00,
2013-07-16 06:47:00,63.1,62.8,29.92,NW,315,0.0,1.0,99,0.00,,,0.00,meteohub,2013-07-16 13:47:00,
2013-07-16 06:52:00,64.9,64.6,29.92,NW,315,0.0,0.0,99,0.00,,,0.00,meteohub,2013-07-16 13:52:00,
2013-07-16 06:57:00,66.4,66.0,29.92,NW,315,0.0,0.0,99,0.00,,,0.00,meteohub,2013-07-16 13:57:00,
2013-07-16 07:02:00,68.0,67.6,29.92,NW,315,0.0,0.0,99,0.00,,,0.00,meteohub,2013-07-16 14:02:00,
2013-07-16 07:07:00,69.6,67.8,29.92,NW,315,0.0,0.0,94,0.00,,,0.00,meteohub,2013-07-16 14:07:00,
2013-07-16 07:12:00,70.9,68.2,29.93,NW,315,0.0,0.0,91,0.00,,,0.00,meteohub,2013-07-16 14:12:00,
2013-07-16 07:17:00,71.6,67.8,29.93,NW,315,0.0,2.0,88,0.00,,,0.00,meteohub,2013-07-16 14:17:00,
2013-07-16 07:22:00,72.0,67.3,29.93,NW,315,0.0,2.0,85,0.00,,,0.00,meteohub,2013-07-16 14:22:00,
2013-07-16 07:27:00,72.0,66.2,29.93,NW,315,2.0,2.0,82,0.00,,,0.00,meteohub,2013-07-16 14:27:00,
2013-07-16 07:32:00,71.8,64.9,29.93,NW,315,2.0,2.0,79,0.00,,,0.00,meteohub,2013-07-16 14:32:00,
2013-07-16 07:37:00,71.8,64.9,29.93,NW,315,0.0,2.0,79,0.00,,,0.00,meteohub,2013-07-16 14:37:00,
2013-07-16 07:42:00,72.7,65.5,29.93,NW,315,2.0,2.0,78,0.00,,,0.00,meteohub,2013-07-16 14:42:00,
2013-07-16 07:47:00,73.6,65.8,29.94,NW,315,0.0,2.0,77,0.00,,,0.00,meteohub,2013-07-16 14:47:00,
2013-07-16 07:52:00,74.7,66.2,29.93,NW,315,0.0,2.0,75,0.00,,,0.00,meteohub,2013-07-16 14:52:00,
2013-07-16 07:57:00,75.7,65.7,29.93,NW,315,0.0,2.0,71,0.00,,,0.00,meteohub,2013-07-16 14:57:00,
2013-07-16 08:02:00,76.8,65.5,29.94,NW,315,2.0,2.0,68,0.00,,,0.00,meteohub,2013-07-16 15:02:00,
2013-07-16 08:07:00,75.9,63.7,29.93,NW,315,0.0,2.0,66,0.00,,,0.00,meteohub,2013-07-16 15:07:00,
2013-07-16 08:12:00,77.9,65.1,29.93,NW,315,2.0,2.0,65,0.00,,,0.00,meteohub,2013-07-16 15:12:00,
2013-07-16 08:17:00,79.2,64.6,29.94,NW,315,2.0,2.0,61,0.00,,,0.00,meteohub,2013-07-16 15:17:00,
2013-07-16 08:22:00,78.6,63.5,29.94,NE,45,2.0,2.0,60,0.00,,,0.00,meteohub,2013-07-16 15:22:00,
2013-07-16 08:27:00,79.0,63.5,29.94,NE,45,2.0,4.0,59,0.00,,,0.00,meteohub,2013-07-16 15:27:00,
2013-07-16 08:32:00,78.8,63.7,29.94,NE,45,2.0,4.0,60,0.00,,,0.00,meteohub,2013-07-16 15:32:00,
2013-07-16 08:37:00,79.0,63.9,29.94,NE,45,2.0,3.0,60,0.00,,,0.00,meteohub,2013-07-16 15:37:00,
2013-07-16 08:42:00,78.6,62.1,29.94,SE,135,4.0,4.0,57,0.00,,,0.00,meteohub,2013-07-16 15:42:00,
2013-07-16 08:47:00,77.5,62.6,29.94,East,90,6.0,6.0,60,0.00,,,0.00,meteohub,2013-07-16 15:47:00,
2013-07-16 08:52:00,78.4,63.9,29.94,East,90,4.0,6.0,61,0.00,,,0.00,meteohub,2013-07-16 15:52:00,
2013-07-16 08:57:00,78.6,64.9,29.94,SE,135,2.0,6.0,63,0.00,,,0.00,meteohub,2013-07-16 15:57:00,
2013-07-16 09:02:00,79.3,63.3,29.94,SE,135,2.0,6.0,58,0.00,,,0.00,meteohub,2013-07-16 16:02:00,
2013-07-16 09:07:00,79.5,63.5,29.94,South,180,3.0,4.0,58,0.00,,,0.00,meteohub,2013-07-16 16:07:00,
2013-07-16 09:12:00,80.6,63.5,29.94,South,180,2.0,4.0,56,0.00,,,0.00,meteohub,2013-07-16 16:12:00,
2013-07-16 09:17:00,82.0,64.8,29.94,South,180,2.0,4.0,56,0.00,,,0.00,meteohub,2013-07-16 16:17:00,
2013-07-16 09:22:00,82.8,62.8,29.93,NW,315,4.0,4.0,51,0.00,,,0.00,meteohub,2013-07-16 16:22:00,
2013-07-16 09:27:00,81.1,63.0,29.93,NW,315,3.0,4.0,54,0.00,,,0.00,meteohub,2013-07-16 16:27:00,
2013-07-16 09:32:00,82.6,64.2,29.93,NE,45,2.0,4.0,54,0.00,,,0.00,meteohub,2013-07-16 16:32:00,
2013-07-16 09:37:00,82.0,62.1,29.93,NE,45,4.0,4.0,51,0.00,,,0.00,meteohub,2013-07-16 16:37:00,
2013-07-16 09:42:00,81.1,63.0,29.94,NE,45,2.0,4.0,54,0.00,,,0.00,meteohub,2013-07-16 16:42:00,
2013-07-16 09:47:00,82.4,62.4,29.94,South,180,4.0,4.0,51,0.00,,,0.00,meteohub,2013-07-16 16:47:00,
2013-07-16 09:52:00,81.3,62.1,29.94,NW,315,4.0,4.0,52,0.00,,,0.00,meteohub,2013-07-16 16:52:00,
2013-07-16 09:57:00,81.9,63.5,29.93,South,180,1.0,4.0,54,0.00,,,0.00,meteohub,2013-07-16 16:57:00,
2013-07-16 10:02:00,82.4,63.0,29.93,West,270,6.0,6.0,52,0.00,,,0.00,meteohub,2013-07-16 17:02:00,
2013-07-16 10:07:00,79.9,64.2,29.93,West,270,7.0,9.0,59,0.00,,,0.00,meteohub,2013-07-16 17:07:00,
2013-07-16 10:12:00,77.7,64.9,29.93,WNW,293,5.0,9.0,65,0.00,,,0.00,meteohub,2013-07-16 17:12:00,
2013-07-16 10:17:00,77.9,65.1,29.93,SW,225,2.0,10.0,65,0.00,,,0.00,meteohub,2013-07-16 17:17:00,
2013-07-16 10:22:00,78.8,64.8,29.94,NW,315,6.0,10.0,62,0.00,,,0.00,meteohub,2013-07-16 17:22:00,
2013-07-16 10:27:00,78.1,64.0,29.94,NW,315,6.0,9.0,62,0.00,,,0.00,meteohub,2013-07-16 17:27:00,
2013-07-16 10:32:00,77.4,64.8,29.94,West,270,7.0,9.0,65,0.00,,,0.00,meteohub,2013-07-16 17:32:00,
2013-07-16 10:37:00,77.9,64.2,29.94,West,270,4.0,7.0,63,0.00,,,0.00,meteohub,2013-07-16 17:37:00,
2013-07-16 10:42:00,77.4,64.8,29.94,NW,315,8.0,9.0,65,0.00,,,0.00,meteohub,2013-07-16 17:42:00,
2013-07-16 10:47:00,77.4,64.8,29.94,SSW,203,2.0,9.0,65,0.00,,,0.00,meteohub,2013-07-16 17:47:00,
2013-07-16 10:52:00,78.1,64.4,29.94,North,0,4.0,9.0,63,0.00,,,0.00,meteohub,2013-07-16 17:52:00,
2013-07-16 10:57:00,78.1,64.4,29.94,WNW,293,8.0,9.0,63,0.00,,,0.00,meteohub,2013-07-16 17:57:00,
2013-07-16 11:02:00,78.1,64.4,29.94,NW,315,7.0,9.0,63,0.00,,,0.00,meteohub,2013-07-16 18:02:00,
2013-07-16 11:07:00,77.7,64.6,29.94,WNW,293,7.0,9.0,64,0.00,,,0.00,meteohub,2013-07-16 18:07:00,
2013-07-16 11:12:00,77.9,64.2,29.94,West,270,9.0,9.0,63,0.00,,,0.00,meteohub,2013-07-16 18:12:00,
2013-07-16 11:17:00,77.4,63.9,29.94,NW,315,10.0,10.0,63,0.00,,,0.00,meteohub,2013-07-16 18:17:00,
2013-07-16 11:22:00,77.2,64.6,29.94,NW,315,8.0,10.0,65,0.00,,,0.00,meteohub,2013-07-16 18:22:00,
2013-07-16 11:27:00,77.0,64.4,29.94,West,270,8.0,10.0,65,0.00,,,0.00,meteohub,2013-07-16 18:27:00,
2013-07-16 11:32:00,77.4,64.8,29.94,NW,315,9.0,11.0,65,0.00,,,0.00,meteohub,2013-07-16 18:32:00,
2013-07-16 11:37:00,77.2,64.0,29.94,West,270,6.0,11.0,64,0.00,,,0.00,meteohub,2013-07-16 18:37:00,
2013-07-16 11:42:00,77.2,64.6,29.94,West,270,10.0,11.0,65,0.00,,,0.00,meteohub,2013-07-16 18:42:00,
2013-07-16 11:47:00,77.4,64.8,29.94,West,270,8.0,10.0,65,0.00,,,0.00,meteohub,2013-07-16 18:47:00,
2013-07-16 11:52:00,77.4,64.2,29.94,West,270,10.0,10.0,64,0.00,,,0.00,meteohub,2013-07-16 18:52:00,
2013-07-16 11:57:00,77.4,63.9,29.94,NW,315,10.0,11.0,63,0.00,,,0.00,meteohub,2013-07-16 18:57:00,
2013-07-16 12:02:00,77.4,63.9,29.94,West,270,9.0,11.0,63,0.00,,,0.00,meteohub,2013-07-16 19:02:00,
2013-07-16 12:07:00,77.4,63.3,29.94,WNW,293,10.0,11.0,62,0.00,,,0.00,meteohub,2013-07-16 19:07:00,
2013-07-16 12:12:00,77.9,63.3,29.94,North,0,6.0,12.0,61,0.00,,,0.00,meteohub,2013-07-16 19:12:00,
2013-07-16 12:17:00,78.3,62.8,29.94,NW,315,9.0,12.0,59,0.00,,,0.00,meteohub,2013-07-16 19:17:00,
2013-07-16 12:22:00,77.9,63.3,29.94,NW,315,9.0,12.0,61,0.00,,,0.00,meteohub,2013-07-16 19:22:00,
2013-07-16 12:27:00,77.9,63.0,29.94,West,270,11.0,12.0,60,0.00,,,0.00,meteohub,2013-07-16 19:27:00,
2013-07-16 12:32:00,77.4,62.8,29.94,NW,315,8.0,12.0,61,0.00,,,0.00,meteohub,2013-07-16 19:32:00,
2013-07-16 12:37:00,77.7,62.8,29.94,West,270,10.0,12.0,60,0.00,,,0.00,meteohub,2013-07-16 19:37:00,
2013-07-16 12:42:00,77.7,62.2,29.94,NW,315,11.0,12.0,59,0.00,,,0.00,meteohub,2013-07-16 19:42:00,
2013-07-16 12:47:00,77.5,62.1,29.94,NW,315,10.0,11.0,59,0.00,,,0.00,meteohub,2013-07-16 19:47:00,
2013-07-16 12:52:00,76.8,61.9,29.94,NW,315,9.0,11.0,60,0.00,,,0.00,meteohub,2013-07-16 19:52:00,
2013-07-16 12:57:00,77.2,61.3,29.94,West,270,8.0,11.0,58,0.00,,,0.00,meteohub,2013-07-16 19:57:00,
2013-07-16 13:02:00,77.5,61.2,29.94,NW,315,11.0,11.0,57,0.00,,,0.00,meteohub,2013-07-16 20:02:00,
2013-07-16 13:07:00,77.2,60.3,29.94,NW,315,9.0,13.0,56,0.00,,,0.00,meteohub,2013-07-16 20:07:00,
2013-07-16 13:12:00,77.9,61.5,29.94,NW,315,11.0,13.0,57,0.00,,,0.00,meteohub,2013-07-16 20:12:00,
2013-07-16 13:17:00,77.9,60.4,29.94,WNW,293,9.0,13.0,55,0.00,,,0.00,meteohub,2013-07-16 20:17:00,
2013-07-16 13:22:00,78.3,60.3,29.93,NW,315,10.0,16.0,54,0.00,,,0.00,meteohub,2013-07-16 20:22:00,
2013-07-16 13:27:00,78.8,60.8,29.93,NW,315,8.0,16.0,54,0.00,,,0.00,meteohub,2013-07-16 20:27:00,
2013-07-16 13:32:00,79.2,60.6,29.93,West,270,10.0,13.0,53,0.00,,,0.00,meteohub,2013-07-16 20:32:00,
2013-07-16 13:37:00,78.8,60.3,29.93,West,270,11.0,13.0,53,0.00,,,0.00,meteohub,2013-07-16 20:37:00,
2013-07-16 13:42:00,78.3,61.3,29.93,WNW,293,11.0,13.0,56,0.00,,,0.00,meteohub,2013-07-16 20:42:00,
2013-07-16 13:47:00,78.3,60.8,29.93,NW,315,11.0,14.0,55,0.00,,,0.00,meteohub,2013-07-16 20:47:00,
2013-07-16 13:52:00,77.7,61.3,29.93,West,270,13.0,15.0,57,0.00,,,0.00,meteohub,2013-07-16 20:52:00,
2013-07-16 13:57:00,77.5,61.5,29.93,NW,315,10.0,15.0,58,0.00,,,0.00,meteohub,2013-07-16 20:57:00,
2013-07-16 14:02:00,77.9,61.5,29.93,NW,315,11.0,15.0,57,0.00,,,0.00,meteohub,2013-07-16 21:02:00,
2013-07-16 14:07:00,78.4,61.5,29.93,West,270,9.0,15.0,56,0.00,,,0.00,meteohub,2013-07-16 21:07:00,
2013-07-16 14:12:00,78.8,61.7,29.93,West,270,11.0,14.0,56,0.00,,,0.00,meteohub,2013-07-16 21:12:00,
2013-07-16 14:17:00,79.3,62.2,29.93,WNW,293,8.0,14.0,56,0.00,,,0.00,meteohub,2013-07-16 21:17:00,
2013-07-16 14:22:00,79.5,61.3,29.93,WNW,293,11.0,14.0,54,0.00,,,0.00,meteohub,2013-07-16 21:22:00,
2013-07-16 14:27:00,79.0,61.5,29.93,NW,315,12.0,13.0,55,0.00,,,0.00,meteohub,2013-07-16 21:27:00,
2013-07-16 14:32:00,78.3,62.2,29.93,West,270,11.0,14.0,58,0.00,,,0.00,meteohub,2013-07-16 21:32:00,
2013-07-16 14:37:00,78.6,61.5,29.93,NW,315,13.0,14.0,56,0.00,,,0.00,meteohub,2013-07-16 21:37:00,
2013-07-16 14:42:00,78.1,61.5,29.93,North,0,10.0,15.0,57,0.00,,,0.00,meteohub,2013-07-16 21:42:00,
2013-07-16 14:47:00,78.6,62.1,29.92,NNW,338,11.0,15.0,57,0.00,,,0.00,meteohub,2013-07-16 21:47:00,
2013-07-16 14:52:00,78.6,62.1,29.92,West,270,12.0,15.0,57,0.00,,,0.00,meteohub,2013-07-16 21:52:00,
2013-07-16 14:57:00,78.3,60.8,29.92,NW,315,10.0,15.0,55,0.00,,,0.00,meteohub,2013-07-16 21:57:00,
2013-07-16 15:02:00,78.6,62.1,29.91,NW,315,9.0,15.0,57,0.00,,,0.00,meteohub,2013-07-16 22:02:00,
2013-07-16 15:07:00,78.8,61.7,29.91,West,270,10.0,15.0,56,0.00,,,0.00,meteohub,2013-07-16 22:07:00,
2013-07-16 15:12:00,79.7,61.5,29.91,WNW,293,6.0,15.0,54,0.00,,,0.00,meteohub,2013-07-16 22:12:00,
2013-07-16 15:17:00,79.7,58.8,29.91,NW,315,10.0,13.0,49,0.00,,,0.00,meteohub,2013-07-16 22:17:00,
2013-07-16 15:22:00,80.1,59.7,29.91,WNW,293,14.0,14.0,50,0.00,,,0.00,meteohub,2013-07-16 22:22:00,
2013-07-16 15:27:00,80.2,61.0,29.91,NW,315,11.0,14.0,52,0.00,,,0.00,meteohub,2013-07-16 22:27:00,
2013-07-16 15:32:00,80.4,60.1,29.91,NW,315,10.0,14.0,50,0.00,,,0.00,meteohub,2013-07-16 22:32:00,
2013-07-16 15:37:00,79.9,58.5,29.90,WNW,293,10.0,14.0,48,0.00,,,0.00,meteohub,2013-07-16 22:37:00,
2013-07-16 15:42:00,80.6,59.2,29.90,NW,315,8.0,11.0,48,0.00,,,0.00,meteohub,2013-07-16 22:42:00,
2013-07-16 15:47:00,81.1,59.0,29.90,NW,315,9.0,11.0,47,0.00,,,0.00,meteohub,2013-07-16 22:47:00,
2013-07-16 15:52:00,81.3,57.4,29.91,NW,315,8.0,11.0,44,0.00,,,0.00,meteohub,2013-07-16 22:52:00,
2013-07-16 15:57:00,81.7,58.8,29.91,NW,315,8.0,11.0,46,0.00,,,0.00,meteohub,2013-07-16 22:57:00,
2013-07-16 16:02:00,81.9,60.3,29.91,West,270,6.0,11.0,48,0.00,,,0.00,meteohub,2013-07-16 23:02:00,
2013-07-16 16:07:00,81.5,58.6,29.91,West,270,11.0,11.0,46,0.00,,,0.00,meteohub,2013-07-16 23:07:00,
2013-07-16 16:12:00,81.7,61.2,29.90,West,270,6.0,12.0,50,0.00,,,0.00,meteohub,2013-07-16 23:12:00,
2013-07-16 16:17:00,82.9,60.1,29.91,NW,315,11.0,12.0,46,0.00,,,0.00,meteohub,2013-07-16 23:17:00,
2013-07-16 16:22:00,82.6,58.5,29.91,NW,315,8.0,12.0,44,0.00,,,0.00,meteohub,2013-07-16 23:22:00,
2013-07-16 16:27:00,82.0,59.9,29.90,West,270,11.0,11.0,47,0.00,,,0.00,meteohub,2013-07-16 23:27:00,
2013-07-16 16:32:00,81.7,60.6,29.90,NW,315,10.0,11.0,49,0.00,,,0.00,meteohub,2013-07-16 23:32:00,
2013-07-16 16:37:00,81.9,60.8,29.90,NW,315,11.0,11.0,49,0.00,,,0.00,meteohub,2013-07-16 23:37:00,
2013-07-16 16:42:00,82.4,62.4,29.90,North,0,9.0,11.0,51,0.00,,,0.00,meteohub,2013-07-16 23:42:00,
2013-07-16 16:47:00,83.1,63.1,29.90,West,270,6.0,11.0,51,0.00,,,0.00,meteohub,2013-07-16 23:47:00,
2013-07-16 16:52:00,82.6,63.7,29.89,NW,315,8.0,11.0,53,0.00,,,0.00,meteohub,2013-07-16 23:52:00,
2013-07-16 16:57:00,81.3,64.6,29.90,West,270,8.0,11.0,57,0.00,,,0.00,meteohub,2013-07-16 23:57:00,
2013-07-16 17:02:00,81.7,64.9,29.90,NW,315,9.0,11.0,57,0.00,,,0.00,meteohub,2013-07-17 00:02:00,
2013-07-16 17:07:00,82.2,64.9,29.90,NW,315,5.0,11.0,56,0.00,,,0.00,meteohub,2013-07-17 00:07:00,
2013-07-16 17:12:00,83.1,64.8,29.90,NW,315,6.0,11.0,54,0.00,,,0.00,meteohub,2013-07-17 00:12:00,
2013-07-16 17:17:00,83.7,64.2,29.89,NW,315,5.0,11.0,52,0.00,,,0.00,meteohub,2013-07-17 00:17:00,
2013-07-16 17:22:00,83.1,64.2,29.90,North,0,4.0,11.0,53,0.00,,,0.00,meteohub,2013-07-17 00:22:00,
2013-07-16 17:27:00,83.7,62.4,29.89,NW,315,8.0,10.0,49,0.00,,,0.00,meteohub,2013-07-17 00:27:00,
2013-07-16 17:32:00,85.1,62.1,29.89,NW,315,5.0,10.0,46,0.00,,,0.00,meteohub,2013-07-17 00:32:00,
2013-07-16 17:37:00,85.6,59.9,29.89,NW,315,8.0,8.0,42,0.00,,,0.00,meteohub,2013-07-17 00:37:00,
2013-07-16 17:42:00,85.3,59.0,29.89,North,0,5.0,8.0,41,0.00,,,0.00,meteohub,2013-07-17 00:42:00,
2013-07-16 17:47:00,85.3,59.5,29.89,NW,315,4.0,8.0,42,0.00,,,0.00,meteohub,2013-07-17 00:47:00,
2013-07-16 17:52:00,84.9,58.6,29.89,North,0,4.0,8.0,41,0.00,,,0.00,meteohub,2013-07-17 00:52:00,
2013-07-16 17:57:00,84.4,58.1,29.89,North,0,5.0,8.0,41,0.00,,,0.00,meteohub,2013-07-17 00:57:00,
2013-07-16 18:02:00,84.2,58.6,29.90,North,0,8.0,8.0,42,0.00,,,0.00,meteohub,2013-07-17 01:02:00,
2013-07-16 18:07:00,83.8,57.6,29.89,North,0,5.0,8.0,41,0.00,,,0.00,meteohub,2013-07-17 01:07:00,
2013-07-16 18:12:00,83.8,58.3,29.89,NW,315,4.0,8.0,42,0.00,,,0.00,meteohub,2013-07-17 01:12:00,
2013-07-16 18:17:00,83.7,57.4,29.89,North,0,4.0,8.0,41,0.00,,,0.00,meteohub,2013-07-17 01:17:00,
2013-07-16 18:22:00,83.1,57.6,29.89,North,0,5.0,6.0,42,0.00,,,0.00,meteohub,2013-07-17 01:22:00,
2013-07-16 18:27:00,82.6,57.2,29.90,NE,45,6.0,8.0,42,0.00,,,0.00,meteohub,2013-07-17 01:27:00,
2013-07-16 18:32:00,82.4,57.0,29.90,North,0,3.0,8.0,42,0.00,,,0.00,meteohub,2013-07-17 01:32:00,
2013-07-16 18:37:00,82.4,56.3,29.90,NW,315,4.0,8.0,41,0.00,,,0.00,meteohub,2013-07-17 01:37:00,
2013-07-16 18:42:00,82.6,55.8,29.90,ENE,68,6.0,8.0,40,0.00,,,0.00,meteohub,2013-07-17 01:42:00,
2013-07-16 18:47:00,82.0,55.9,29.90,NE,45,4.0,6.0,41,0.00,,,0.00,meteohub,2013-07-17 01:47:00,
2013-07-16 18:52:00,81.5,56.1,29.90,North,0,4.0,7.0,42,0.00,,,0.00,meteohub,2013-07-17 01:52:00,
2013-07-16 18:57:00,81.3,56.1,29.90,North,0,4.0,7.0,42,0.00,,,0.00,meteohub,2013-07-17 01:57:00,
2013-07-16 19:02:00,81.5,55.6,29.91,NNE,23,4.0,7.0,41,0.00,,,0.00,meteohub,2013-07-17 02:02:00,
2013-07-16 19:08:00,81.5,55.6,29.90,North,0,5.0,7.0,41,0.00,,,0.00,meteohub,2013-07-17 02:08:00,
2013-07-16 19:13:00,80.6,54.7,29.91,North,0,5.0,6.0,41,0.00,,,0.00,meteohub,2013-07-17 02:13:00,
2013-07-16 19:18:00,79.7,55.2,29.91,NNE,23,4.0,5.0,43,0.00,,,0.00,meteohub,2013-07-17 02:18:00,
2013-07-16 19:23:00,79.3,54.3,29.91,NE,45,6.0,6.0,42,0.00,,,0.00,meteohub,2013-07-17 02:23:00,
2013-07-16 19:28:00,78.8,55.0,29.91,NNE,23,2.0,5.0,44,0.00,,,0.00,meteohub,2013-07-17 02:28:00,
2013-07-16 19:33:00,78.6,54.9,29.91,NE,45,2.0,6.0,44,0.00,,,0.00,meteohub,2013-07-17 02:33:00,
2013-07-16 19:38:00,78.3,55.8,29.92,North,0,4.0,6.0,46,0.00,,,0.00,meteohub,2013-07-17 02:38:00,
2013-07-16 19:43:00,77.0,56.3,29.92,North,0,4.0,4.0,49,0.00,,,0.00,meteohub,2013-07-17 02:43:00,
2013-07-16 19:48:00,75.6,55.6,29.92,NE,45,6.0,6.0,50,0.00,,,0.00,meteohub,2013-07-17 02:48:00,
2013-07-16 19:53:00,74.5,56.3,29.92,NE,45,4.0,7.0,53,0.00,,,0.00,meteohub,2013-07-17 02:53:00,
2013-07-16 19:58:00,73.8,55.6,29.92,North,0,4.0,7.0,53,0.00,,,0.00,meteohub,2013-07-17 02:58:00,
2013-07-16 20:03:00,73.0,55.4,29.92,North,0,5.0,7.0,54,0.00,,,0.00,meteohub,2013-07-17 03:03:00,
2013-07-16 20:08:00,72.5,55.9,29.93,NE,45,3.0,6.0,56,0.00,,,0.00,meteohub,2013-07-17 03:08:00,
2013-07-16 20:13:00,72.1,56.5,29.93,North,0,4.0,5.0,58,0.00,,,0.00,meteohub,2013-07-17 03:13:00,
2013-07-16 20:18:00,71.8,57.2,29.93,North,0,2.0,6.0,60,0.00,,,0.00,meteohub,2013-07-17 03:18:00,
2013-07-16 20:23:00,71.4,57.7,29.93,North,0,3.0,6.0,62,0.00,,,0.00,meteohub,2013-07-17 03:23:00,
2013-07-16 20:28:00,70.9,57.7,29.93,North,0,2.0,6.0,63,0.00,,,0.00,meteohub,2013-07-17 03:28:00,
2013-07-16 20:33:00,70.3,57.6,29.93,North,0,4.0,5.0,64,0.00,,,0.00,meteohub,2013-07-17 03:33:00,
2013-07-16 20:38:00,70.2,58.3,29.94,NE,45,2.0,4.0,66,0.00,,,0.00,meteohub,2013-07-17 03:38:00,
2013-07-16 20:43:00,70.0,58.1,29.94,North,0,3.0,4.0,66,0.00,,,0.00,meteohub,2013-07-17 03:43:00,
2013-07-16 20:48:00,69.6,58.1,29.94,North,0,2.0,4.0,67,0.00,,,0.00,meteohub,2013-07-17 03:48:00,
2013-07-16 20:53:00,69.4,58.5,29.94,North,0,3.0,4.0,68,0.00,,,0.00,meteohub,2013-07-17 03:53:00,
2013-07-16 20:58:00,69.3,58.3,29.94,North,0,4.0,4.0,68,0.00,,,0.00,meteohub,2013-07-17 03:58:00,
2013-07-16 21:01:00,69.1,58.1,29.94,North,0,2.0,4.0,68,0.00,,,0.00,meteohub,2013-07-17 04:01:00,
2013-07-16 21:02:00,69.1,58.1,29.94,North,0,2.0,4.0,68,0.00,,,0.00,meteohub,2013-07-17 04:02:00,
2013-07-16 21:07:00,68.7,58.5,29.95,North,0,2.0,4.0,70,0.00,,,0.00,meteohub,2013-07-17 04:07:00,
2013-07-16 21:12:00,68.5,58.3,29.96,North,0,2.0,4.0,70,0.00,,,0.00,meteohub,2013-07-17 04:12:00,
2013-07-16 21:17:00,68.2,58.1,29.96,North,0,2.0,2.0,70,0.00,,,0.00,meteohub,2013-07-17 04:17:00,
2013-07-16 21:22:00,67.8,58.5,29.96,North,0,2.0,2.0,72,0.00,,,0.00,meteohub,2013-07-17 04:22:00,
2013-07-16 21:27:00,67.5,58.5,29.96,North,0,2.0,2.0,73,0.00,,,0.00,meteohub,2013-07-17 04:27:00,
2013-07-16 21:32:00,67.3,58.3,29.97,North,0,2.0,2.0,73,0.00,,,0.00,meteohub,2013-07-17 04:32:00,
2013-07-16 21:37:00,67.1,58.5,29.97,North,0,0.0,2.0,74,0.00,,,0.00,meteohub,2013-07-17 04:37:00,
2013-07-16 21:42:00,66.9,58.8,29.97,North,0,0.0,2.0,75,0.00,,,0.00,meteohub,2013-07-17 04:42:00,
2013-07-16 21:47:00,66.6,58.5,29.98,North,0,0.0,2.0,75,0.00,,,0.00,meteohub,2013-07-17 04:47:00,
2013-07-16 21:52:00,66.6,59.2,29.98,North,0,2.0,2.0,77,0.00,,,0.00,meteohub,2013-07-17 04:52:00,
2013-07-16 21:55:00,66.6,59.2,29.98,North,0,2.0,2.0,77,0.00,,,0.00,meteohub,2013-07-17 04:55:00,
2013-07-16 21:59:00,66.4,59.0,29.98,North,0,3.0,3.0,77,0.00,,,0.00,meteohub,2013-07-17 04:59:00,
2013-07-16 22:04:00,66.4,59.4,29.99,North,0,1.0,2.0,78,0.00,,,0.00,meteohub,2013-07-17 05:04:00,
2013-07-16 22:09:00,66.0,59.0,29.99,North,0,0.0,3.0,78,0.00,,,0.00,meteohub,2013-07-17 05:09:00,
2013-07-16 22:14:00,65.8,59.2,29.99,North,0,0.0,3.0,79,0.00,,,0.00,meteohub,2013-07-17 05:14:00,
2013-07-16 22:19:00,65.5,58.8,29.99,North,0,0.0,2.0,79,0.00,,,0.00,meteohub,2013-07-17 05:19:00,
2013-07-16 22:24:00,65.1,58.1,29.99,North,0,0.0,1.0,78,0.00,,,0.00,meteohub,2013-07-17 05:24:00,
2013-07-16 22:29:00,64.8,58.1,29.99,North,0,0.0,1.0,79,0.00,,,0.00,meteohub,2013-07-17 05:29:00,
2013-07-16 22:35:00,64.9,59.4,30.00,North,0,2.0,2.0,82,0.00,,,0.00,meteohub,2013-07-17 05:35:00,
2013-07-16 22:40:00,65.5,60.8,29.99,North,0,2.0,2.0,85,0.00,,,0.00,meteohub,2013-07-17 05:40:00,
2013-07-16 22:45:00,66.2,61.9,29.99,North,0,2.0,2.0,86,0.00,,,0.00,meteohub,2013-07-17 05:45:00,
2013-07-16 22:50:00,66.6,62.2,29.99,North,0,2.0,3.0,86,0.00,,,0.00,meteohub,2013-07-17 05:50:00,
2013-07-16 22:55:00,66.7,62.8,29.99,North,0,3.0,3.0,87,0.00,,,0.00,meteohub,2013-07-17 05:55:00,
2013-07-16 23:00:00,66.7,63.1,30.00,North,0,3.0,3.0,88,0.00,,,0.00,meteohub,2013-07-17 06:00:00,
2013-07-16 23:05:00,66.9,63.9,29.99,North,0,3.0,4.0,90,0.00,,,0.00,meteohub,2013-07-17 06:05:00,
2013-07-16 23:10:00,66.7,64.0,30.00,NW,315,2.0,4.0,91,0.00,,,0.00,meteohub,2013-07-17 06:10:00,
2013-07-16 23:15:00,66.6,63.9,30.00,NW,315,3.0,4.0,91,0.00,,,0.00,meteohub,2013-07-17 06:15:00,
2013-07-16 23:20:00,66.4,63.7,30.00,NW,315,2.0,4.0,91,0.00,,,0.00,meteohub,2013-07-17 06:20:00,
2013-07-16 23:25:00,66.2,63.5,30.00,NW,315,2.0,4.0,91,0.00,,,0.00,meteohub,2013-07-17 06:25:00,
2013-07-16 23:30:00,66.0,63.7,30.00,North,0,2.0,3.0,92,0.00,,,0.00,meteohub,2013-07-17 06:30:00,
2013-07-16 23:35:00,65.8,63.5,30.00,North,0,2.0,3.0,92,0.00,,,0.00,meteohub,2013-07-17 06:35:00,
2013-07-16 23:40:00,65.5,63.1,30.00,North,0,1.0,3.0,92,0.00,,,0.00,meteohub,2013-07-17 06:40:00,
2013-07-16 23:45:00,65.3,63.1,30.00,North,0,0.0,3.0,93,0.00,,,0.00,meteohub,2013-07-17 06:45:00,
2013-07-16 23:50:00,65.1,63.7,29.99,North,0,2.0,2.0,95,0.00,,,0.00,meteohub,2013-07-17 06:50:00,
2013-07-16 23:55:00,64.9,63.5,29.99,North,0,0.0,2.0,95,0.00,,,0.00,meteohub,2013-07-17 06:55:00,